Time;durP1;ratioP1;P1;durP2;ratioP2;P2;SDS_P1;SDS_P2;PMS_P1;PMS_P2;Temp;Humidity;BMP_temperature;BMP_pressure;BME280_temperature;BME280_humidity;BME280_pressure;Samples;Min_cycle;Max_cycle;Signal;HPM_P1;HPM_P2
2021/09/14 01:12:56;;;;;;;;;5.00;5.00;;;;;22.74;51.95;100832.22;5822472;24;45483;-83
2021/09/14 01:26:26;;;;;;;;;;;;;;;;;;;;;
2021/09/14 02:08:36;;;;;;;;;;;;;;;;;;;;;
2021/09/14 03:15:34;;;;;;;;;;;;;;;;;;;;;
2021/09/14 03:18:39;;;;;;;;;;;;;;;;;;;;;
2021/09/14 03:25:42;;;;;;;;;;;;;;;;;;;;;
2021/09/14 03:28:33;;;;;;;;;;;;;;;;;;;;;
2021/09/14 03:45:23;;;;;;;;;;;;;;;;;;;;;
2021/09/14 03:54:56;;;;;;;;;;;;;;;;;;;;;
2021/09/14 03:57:25;;;;;;;;;10.25;10.25;;;;;21.85;59.96;100721.47;6159182;23;68632;-84
2021/09/14 04:00:18;;;;;;;;;;;;;;;;;;;;;
2021/09/14 04:24:32;;;;;;;;;;;;;;;;;;;;;
2021/09/14 04:27:51;;;;;;;;;;;;;;;;;;;;;
2021/09/14 05:49:25;;;;;;;;;;;;;;;;;;;;;
2021/09/14 05:51:51;;;;;;;;;15.25;14.25;;;;;21.38;64.11;100764.03;6190457;23;72800;-86
2021/09/14 05:54:17;;;;;;;;;15.25;14.25;;;;;21.39;64.43;100772.00;6187560;23;47838;-86
2021/09/14 05:56:51;;;;;;;;;12.75;12.25;;;;;21.39;64.29;100782.72;6190530;23;45311;-85
2021/09/14 05:59:19;;;;;;;;;17.25;14.75;;;;;21.43;64.40;100799.50;6187870;23;45400;-87
2021/09/14 06:02:22;;;;;;;;;14.00;14.00;;;;;21.52;64.32;100820.50;6188869;22;45390;-88
2021/09/14 06:04:47;;;;;;;;;17.75;15.75;;;;;21.50;64.39;100819.69;6190080;22;45401;-86
2021/09/14 06:07:15;;;;;;;;;12.75;12.75;;;;;21.55;64.35;100818.53;6189599;22;45155;-86
2021/09/14 06:09:41;;;;;;;;;13.25;12.75;;;;;21.52;64.46;100825.84;6189646;23;45156;-87
2021/09/14 06:12:24;;;;;;;;;14.25;12.50;;;;;21.50;64.34;100828.59;6186908;22;45590;-86
2021/09/14 06:15:01;;;;;;;;;12.67;11.00;;;;;21.50;64.07;100836.63;6190646;22;46748;-88
2021/09/14 06:17:27;;;;;;;;;12.75;11.25;;;;;21.41;64.20;100814.75;6188133;23;45283;-86
2021/09/14 06:19:52;;;;;;;;;10.50;10.50;;;;;21.40;64.04;100818.41;6187311;23;45239;-84
2021/09/14 06:26:08;;;;;;;;;14.00;11.75;;;;;21.36;64.41;100845.28;6106148;23;45445;-85
2021/09/14 07:05:13;;;;;;;;;10.00;10.00;;;;;20.67;68.80;100818.13;6127458;22;45995;-93
2021/09/14 13:32:03;;;;;;;;;4.00;4.00;;;;;30.61;40.28;100791.88;6126043;22;1525714;-84
2021/09/14 13:35:29;;;;;;;;;;;;;;;;;;;;;
2021/09/14 13:38:05;;;;;;;;;5.00;4.33;;;;;31.67;38.59;100787.88;6170498;23;44872;-81
2021/09/14 13:41:01;;;;;;;;;7.33;6.67;;;;;31.72;38.75;100791.88;6175927;23;45178;-83
2021/09/14 13:47:12;;;;;;;;;;;;;;;;;;;;;
2021/09/14 13:50:48;;;;;;;;;;;;;;;;;;;;;
2021/09/14 13:53:14;;;;;;;;;4.33;4.00;;;;;32.38;37.51;100774.84;6005957;23;72200;-84
2021/09/14 14:22:44;;;;;;;;;5.00;5.00;;;;;29.75;41.11;100755.75;6220162;22;45832;-88
2021/09/14 14:25:13;;;;;;;;;5.00;5.00;;;;;29.52;41.50;100747.69;6215264;22;45302;-84
2021/09/14 14:27:38;;;;;;;;;6.00;6.00;;;;;29.38;41.63;100753.41;6214659;22;45730;-83
2021/09/14 14:30:17;;;;;;;;;6.33;6.33;;;;;29.24;42.03;100752.69;6215634;22;47707;-83
2021/09/14 14:33:06;;;;;;;;;7.00;5.67;;;;;29.40;42.34;100749.56;6223970;22;45219;-86
2021/09/14 14:44:51;;;;;;;;;4.33;4.33;;;;;30.69;40.10;100730.41;6188880;22;46245;-80
2021/09/14 14:55:17;;;;;;;;;4.33;4.33;;;;;30.62;39.78;100723.78;5895989;24;45481;-88
2021/09/14 14:58:32;;;;;;;;;5.67;4.67;;;;;30.60;39.97;100724.94;5893336;24;45410;-85
2021/09/14 15:01:27;;;;;;;;;6.33;5.33;;;;;30.32;39.91;100728.22;5903369;23;45635;-88
2021/09/14 15:07:44;;;;;;;;;5.00;4.67;;;;;29.76;40.81;100722.22;6094173;23;45571;-86
2021/09/14 15:50:29;;;;;;;;;6.00;6.00;;;;;28.39;44.97;100695.38;6214654;22;45157;-84
2021/09/14 15:52:55;;;;;;;;;8.00;7.00;;;;;28.24;45.88;100697.44;6187015;22;45530;-84
2021/09/14 15:55:29;;;;;;;;;8.33;8.33;;;;;28.14;45.73;100702.72;6218344;22;45159;-84
2021/09/14 15:58:43;;;;;;;;;;;;;;;;;;;;;
2021/09/14 16:01:59;;;;;;;;;7.00;7.00;;;;;27.98;46.65;100714.84;6216074;22;68491;-85
2021/09/14 16:40:16;;;;;;;;;;;;;;;;;;;;;
2021/09/14 16:47:58;;;;;;;;;;;;;;;;;;;;;
2021/09/14 16:51:17;;;;;;;;;7.67;5.00;;;;;26.33;52.43;100702.56;5889539;24;67915;-83
2021/09/14 19:23:56;;;;;;;;;15.25;14.50;;;;;24.56;64.62;100747.50;4592696;27;15241162;-81
2021/09/14 19:26:24;;;;;;;;;14.00;13.25;;;;;24.57;64.93;100754.63;5120687;27;45244;-82
2021/09/14 19:28:53;;;;;;;;;17.00;14.50;;;;;24.57;64.91;100750.09;5114798;27;46400;-83
2021/09/14 19:31:22;;;;;;;;;13.50;13.50;;;;;24.52;65.23;100749.53;5097337;27;45648;-83
2021/09/14 19:33:53;;;;;;;;;13.75;13.75;;;;;24.50;64.78;100739.81;5099410;27;45515;-84
2021/09/14 19:36:24;;;;;;;;;15.00;14.50;;;;;24.51;65.34;100747.81;5100820;27;45446;-85
2021/09/14 19:38:53;;;;;;;;;16.00;15.00;;;;;24.51;65.19;100749.59;5094932;27;46922;-84
2021/09/14 19:41:20;;;;;;;;;17.50;15.25;;;;;24.46;65.39;100743.63;5112511;27;45435;-84
2021/09/14 19:43:46;;;;;;;;;17.25;16.50;;;;;24.46;65.22;100733.75;5093290;27;45437;-82
2021/09/14 19:46:12;;;;;;;;;16.75;14.50;;;;;24.44;65.86;100730.28;5114117;27;45342;-80
2021/09/14 19:48:37;;;;;;;;;20.00;17.75;;;;;24.43;65.98;100733.88;5117776;27;45343;-82
2021/09/14 19:51:03;;;;;;;;;17.00;15.25;;;;;24.41;65.81;100733.13;5099633;27;45402;-82
2021/09/14 19:53:29;;;;;;;;;17.00;17.00;;;;;24.37;66.19;100728.91;5112008;27;45500;-83
2021/09/14 19:55:55;;;;;;;;;17.25;14.75;;;;;24.39;66.16;100729.66;5094481;27;45440;-82
2021/09/14 19:58:21;;;;;;;;;18.75;17.50;;;;;24.39;65.94;100727.84;5085773;27;47731;-82
2021/09/14 20:00:47;;;;;;;;;19.00;18.50;;;;;24.37;66.46;100726.19;5100007;27;45404;-82
2021/09/14 20:03:14;;;;;;;;;18.33;15.33;;;;;24.36;66.60;100733.41;5097856;27;45429;-82
2021/09/14 20:05:40;;;;;;;;;19.75;18.50;;;;;24.33;66.88;100739.00;5117753;27;45493;-84
2021/09/14 20:08:08;;;;;;;;;17.50;16.50;;;;;24.32;66.74;100739.94;5089077;27;45747;-82
